This is the latest recevied weather packets stored in our database for station/object OE-11361. If no packets are shown the sender has not sent any weather packets the latest 10 day(s).
| Time | Temp. | Humidity | Pressure | Rain* | Wind** | Luminosity | Snow |
|---|---|---|---|---|---|---|---|
| 1787877304 | 21.11° C | 76% | 1011.9 hPa | 0 mm | - | 0 W/m² | - |
| 1787876704 | 21.67° C | 74% | 1011.9 hPa | 0 mm | - | 0 W/m² | - |
| 1787875876 | 22.22° C | 73% | 1011.8 hPa | 0 mm | - | 0 W/m² | - |
| 1787875503 | 21.67° C | 74% | 1011.8 hPa | 0 mm | - | 0 W/m² | - |
| 1787874904 | 22.22° C | 72% | 1011.7 hPa | 0 mm | - | 0 W/m² | - |
| 1787874076 | 21.67° C | 76% | 1012.1 hPa | 0 mm | - | 0 W/m² | - |
| 1787873704 | 20° C | 83% | 1012.4 hPa | 0 mm | - | 0 W/m² | - |
| 1787873103 | 20.56° C | 82% | 1012.6 hPa | 0 mm | - | 0 W/m² | - |
| 1787872504 | 19.44° C | 86% | 1012.9 hPa | 0 mm | - | 0 W/m² | - |
| 1787871903 | 20° C | 85% | 1012.8 hPa | 0 mm | - | 0 W/m² | - |
| 1787870477 | 19.44° C | 90% | 1013 hPa | 0 mm | - | 0 W/m² | - |
| 1787870104 | 18.89° C | 90% | 1013.2 hPa | 0 mm | - | 0 W/m² | - |
| 1787869504 | 19.44° C | 90% | 1013.2 hPa | 0 mm | - | 0 W/m² | - |
| 1787868677 | 19.44° C | 90% | 1013.3 hPa | 0 mm | - | 0 W/m² | - |
| 1787868303 | 19.44° C | 90% | 1013.5 hPa | 0 mm | - | 0 W/m² | - |
| 1787867704 | 19.44° C | 89% | 1013.5 hPa | 0 mm | - | 0 W/m² | - |
| 1787866877 | 19.44° C | 88% | 1013.4 hPa | 0 mm | - | 0 W/m² | - |
| 1787866503 | 20° C | 87% | 1013.5 hPa | 0 mm | - | 0 W/m² | - |
| 1787865904 | 19.44° C | 88% | 1013.4 hPa | 0 mm | - | 0 W/m² | - |
| 1787865077 | 20° C | 88% | 1013.5 hPa | 0 mm | - | 0 W/m² | - |
| 1787864703 | 20° C | 88% | 1013.6 hPa | 0 mm | - | 0 W/m² | - |
| 1787864103 | 20° C | 88% | 1013.4 hPa | 0 mm | - | 0 W/m² | - |
| 1787863277 | 20° C | 88% | 1013.5 hPa | 0 mm | - | 0 W/m² | - |
| 1787862904 | 20° C | 88% | 1013.5 hPa | 0 mm | - | 0 W/m² | - |
| 1787862304 | 20.56° C | 86% | 1013.4 hPa | 0 mm | - | 0 W/m² | - |
* Rain latest hour (hover to see other rain measurements)
** Current wind speed in m/s (hover to see current wind gust speed)